Time;durP1;ratioP1;P1;durP2;ratioP2;P2;SDS_P1;SDS_P2;PMS_P1;PMS_P2;Temp;Humidity;BMP_temperature;BMP_pressure;BME280_temperature;BME280_humidity;BME280_pressure;Samples;Min_cycle;Max_cycle;Signal;HPM_P1;HPM_P2
2022/03/13 00:00:17;;;;;;;8.02;5.35;;;11.10;65.60;;;;;;2064835;28;20030;-86
2022/03/13 00:01:18;;;;;;;7.57;5.20;;;11.10;65.60;;;;;;2067273;28;20143;-85
2022/03/13 00:02:19;;;;;;;7.50;4.65;;;11.10;65.60;;;;;;2057620;28;20117;-85
2022/03/13 00:03:22;;;;;;;7.68;4.88;;;11.00;65.60;;;;;;2072900;28;20037;-85
2022/03/13 00:04:22;;;;;;;7.75;5.10;;;11.00;65.60;;;;;;2072261;28;20108;-85
2022/03/13 00:05:23;;;;;;;7.00;4.72;;;11.00;65.60;;;;;;2072456;28;20084;-85
2022/03/13 00:06:32;;;;;;;8.57;5.57;;;11.00;65.60;;;;;;2068247;28;20073;-85
2022/03/13 00:07:34;;;;;;;8.07;5.40;;;11.00;65.60;;;;;;2065625;28;20038;-85
2022/03/13 00:08:34;;;;;;;7.47;4.53;;;11.00;65.60;;;;;;2070416;28;20554;-85
2022/03/13 00:09:35;;;;;;;8.38;5.05;;;11.00;65.60;;;;;;2072543;28;20061;-85
2022/03/13 00:10:36;;;;;;;7.90;4.97;;;11.00;65.60;;;;;;2072424;28;20109;-85
2022/03/13 00:11:37;;;;;;;8.55;5.22;;;11.00;65.70;;;;;;2072445;28;20033;-85
2022/03/13 00:12:39;;;;;;;7.72;5.15;;;11.00;65.70;;;;;;2069762;28;20045;-85
2022/03/13 00:13:50;;;;;;;7.20;4.72;;;11.00;65.60;;;;;;2071968;28;20108;-85
2022/03/13 00:14:51;;;;;;;7.40;5.13;;;11.00;65.70;;;;;;2073951;28;20054;-85
2022/03/13 00:15:52;;;;;;;8.45;5.47;;;11.00;65.70;;;;;;2070258;28;20071;-85
2022/03/13 00:16:53;;;;;;;7.63;5.00;;;10.90;65.70;;;;;;2064617;28;20544;-85
2022/03/13 00:17:55;;;;;;;8.30;5.35;;;10.90;65.70;;;;;;2068961;28;20542;-85
2022/03/13 00:18:59;;;;;;;7.00;4.75;;;10.90;65.80;;;;;;2073472;28;20030;-85
2022/03/13 00:20:03;;;;;;;8.95;5.15;;;10.90;65.80;;;;;;2073262;28;20033;-85
2022/03/13 00:21:04;;;;;;;7.63;5.18;;;10.90;65.80;;;;;;2072544;28;20436;-85
2022/03/13 00:22:05;;;;;;;7.97;4.97;;;10.90;65.80;;;;;;2072249;28;20091;-86
2022/03/13 00:23:06;;;;;;;8.20;5.05;;;10.90;65.90;;;;;;2072373;28;20453;-85
2022/03/13 00:24:07;;;;;;;7.82;5.38;;;10.90;65.80;;;;;;2072763;28;20198;-85
2022/03/13 00:25:09;;;;;;;7.60;4.90;;;10.90;65.90;;;;;;2064370;28;20073;-85
2022/03/13 00:26:11;;;;;;;8.48;5.60;;;10.90;66.00;;;;;;2071203;28;20072;-85
2022/03/13 00:27:11;;;;;;;8.93;5.28;;;10.90;66.00;;;;;;2072682;28;20112;-85
2022/03/13 00:28:12;;;;;;;8.13;5.28;;;10.90;66.60;;;;;;2063398;28;20448;-85
2022/03/13 00:29:13;;;;;;;7.82;5.20;;;10.90;66.00;;;;;;2072157;28;20400;-85
2022/03/13 00:30:15;;;;;;;7.80;5.07;;;10.90;66.10;;;;;;2072670;28;20026;-85
2022/03/13 00:31:15;;;;;;;7.78;5.30;;;10.80;66.10;;;;;;2064479;28;20564;-85
2022/03/13 00:32:17;;;;;;;8.40;5.15;;;10.80;66.10;;;;;;2056427;28;20081;-85
2022/03/13 00:33:18;;;;;;;7.82;5.13;;;10.80;66.20;;;;;;2063780;28;20303;-85
2022/03/13 00:34:19;;;;;;;7.97;5.30;;;10.80;66.30;;;;;;2063938;28;20023;-85
2022/03/13 00:35:20;;;;;;;8.23;5.15;;;10.80;66.20;;;;;;2070971;28;20048;-85
2022/03/13 00:36:21;;;;;;;7.72;5.22;;;10.80;66.30;;;;;;2063247;28;20041;-84
2022/03/13 00:37:22;;;;;;;8.00;5.32;;;10.70;66.30;;;;;;2062309;28;20470;-85
2022/03/13 00:38:25;;;;;;;8.05;4.80;;;10.70;66.40;;;;;;2072211;28;20034;-85
2022/03/13 00:39:26;;;;;;;7.65;5.35;;;10.70;66.40;;;;;;2072723;28;20026;-86
2022/03/13 00:40:27;;;;;;;7.63;4.97;;;10.70;66.40;;;;;;2072539;28;20475;-85
2022/03/13 00:41:28;;;;;;;7.88;5.53;;;10.70;66.50;;;;;;2072398;28;20037;-85
2022/03/13 00:42:29;;;;;;;7.38;4.88;;;10.60;66.50;;;;;;2073112;28;20476;-85
2022/03/13 00:43:29;;;;;;;7.97;5.05;;;10.60;67.20;;;;;;2072178;28;20048;-85
2022/03/13 00:44:30;;;;;;;8.77;5.28;;;10.60;66.60;;;;;;2072697;28;20038;-85
2022/03/13 00:45:31;;;;;;;9.60;5.80;;;10.60;66.60;;;;;;2067092;28;20050;-85
2022/03/13 00:46:32;;;;;;;9.07;5.57;;;10.60;66.60;;;;;;2072136;28;20084;-85
2022/03/13 00:47:32;;;;;;;8.20;5.30;;;10.60;66.60;;;;;;2067419;28;20054;-85
2022/03/13 00:48:33;;;;;;;8.52;5.53;;;10.60;66.60;;;;;;2071834;28;20488;-85
2022/03/13 00:49:34;;;;;;;8.48;5.43;;;10.60;66.70;;;;;;2064205;28;20030;-86
2022/03/13 00:50:35;;;;;;;8.10;5.50;;;10.60;67.30;;;;;;2063000;28;20065;-85
2022/03/13 00:51:35;;;;;;;7.68;4.85;;;10.60;66.70;;;;;;2071117;28;20026;-85
2022/03/13 00:52:36;;;;;;;10.45;5.50;;;10.60;66.70;;;;;;2048891;29;20083;-85
2022/03/13 00:53:38;;;;;;;7.70;5.00;;;10.60;66.70;;;;;;2041595;29;20028;-85
2022/03/13 00:54:38;;;;;;;7.18;5.05;;;10.60;66.70;;;;;;2058313;28;20121;-85
2022/03/13 00:55:39;;;;;;;7.10;4.55;;;10.60;66.70;;;;;;2073824;28;20479;-85
2022/03/13 00:56:40;;;;;;;7.68;4.97;;;10.60;66.70;;;;;;2081481;28;20034;-85
2022/03/13 00:57:43;;;;;;;7.30;4.80;;;10.60;66.70;;;;;;2057148;28;20054;-85
2022/03/13 00:58:44;;;;;;;8.07;5.10;;;10.60;66.70;;;;;;2065335;28;20042;-85
2022/03/13 00:59:45;;;;;;;7.53;5.22;;;10.60;66.70;;;;;;2070053;28;20385;-85
2022/03/13 01:00:45;;;;;;;7.80;5.00;;;10.60;66.70;;;;;;2074799;28;20042;-86
2022/03/13 01:01:46;;;;;;;7.95;5.13;;;10.60;66.70;;;;;;2074684;28;20403;-85
2022/03/13 01:02:46;;;;;;;7.57;4.95;;;10.60;66.80;;;;;;2074693;28;20080;-85
2022/03/13 01:03:50;;;;;;;7.43;5.05;;;10.60;66.80;;;;;;2071484;28;20483;-85
2022/03/13 01:04:52;;;;;;;9.35;5.03;;;10.60;66.80;;;;;;2074252;28;20116;-85
2022/03/13 01:05:52;;;;;;;8.15;4.63;;;10.60;66.80;;;;;;2073693;28;20024;-85
2022/03/13 01:06:53;;;;;;;7.72;4.68;;;10.60;66.80;;;;;;2074406;28;20034;-85
2022/03/13 01:07:55;;;;;;;6.97;4.68;;;10.60;66.80;;;;;;2073918;28;20488;-85
2022/03/13 01:08:56;;;;;;;7.60;5.03;;;10.60;66.90;;;;;;2071289;28;20030;-85
2022/03/13 01:09:57;;;;;;;8.35;5.32;;;10.60;67.00;;;;;;2073591;28;20361;-85
2022/03/13 01:10:58;;;;;;;7.47;5.07;;;10.60;67.00;;;;;;2074627;28;20029;-85
2022/03/13 01:11:59;;;;;;;8.50;5.72;;;10.60;66.90;;;;;;2074652;28;20045;-85
2022/03/13 01:13:00;;;;;;;8.38;5.00;;;10.60;67.00;;;;;;2074690;28;20527;-85
2022/03/13 01:14:01;;;;;;;10.77;5.32;;;10.60;67.00;;;;;;2073036;28;20144;-85
2022/03/13 01:15:02;;;;;;;7.90;5.32;;;10.50;67.00;;;;;;2057817;28;20050;-85
2022/03/13 01:16:15;;;;;;;7.20;4.95;;;10.50;67.00;;;;;;2065704;28;20030;-85
2022/03/13 01:17:20;;;;;;;7.30;4.93;;;10.50;67.10;;;;;;2059264;28;20124;-85
2022/03/13 01:18:21;;;;;;;7.75;5.05;;;10.50;67.20;;;;;;2073443;28;20014;-85
2022/03/13 01:19:21;;;;;;;7.03;4.65;;;10.50;67.20;;;;;;2067518;28;20504;-85
2022/03/13 01:20:23;;;;;;;7.18;4.88;;;10.50;67.30;;;;;;2059893;28;20062;-86
2022/03/13 01:21:25;;;;;;;8.35;5.30;;;10.50;67.30;;;;;;2065818;28;20036;-85
2022/03/13 01:22:26;;;;;;;7.13;4.85;;;10.40;67.30;;;;;;2065827;28;20027;-85
2022/03/13 01:23:26;;;;;;;7.53;4.75;;;10.50;67.40;;;;;;2049792;28;20032;-85
2022/03/13 01:24:43;;;;;;;7.05;4.78;;;10.50;67.30;;;;;;2056121;28;20137;-85
2022/03/13 01:25:44;;;;;;;7.32;4.60;;;10.50;67.30;;;;;;2064655;28;20121;-85
2022/03/13 01:26:52;;;;;;;6.72;4.53;;;10.50;67.40;;;;;;2065141;28;20125;-85
2022/03/13 01:27:53;;;;;;;6.93;4.35;;;10.50;67.40;;;;;;2067868;28;20097;-85
2022/03/13 01:28:57;;;;;;;7.85;5.00;;;10.50;67.30;;;;;;2065400;28;20121;-85
2022/03/13 01:29:58;;;;;;;7.63;4.80;;;10.50;67.30;;;;;;2066758;28;20030;-86
2022/03/13 01:30:59;;;;;;;7.28;4.55;;;10.50;67.40;;;;;;2057710;28;20042;-85
2022/03/13 01:32:01;;;;;;;7.85;5.40;;;10.50;67.40;;;;;;2057726;28;20034;-85
2022/03/13 01:33:02;;;;;;;8.50;5.57;;;10.50;67.40;;;;;;2065547;28;20030;-85
2022/03/13 01:34:05;;;;;;;9.10;5.50;;;10.50;67.40;;;;;;2067207;28;20022;-85
2022/03/13 01:35:06;;;;;;;9.45;5.70;;;10.40;67.30;;;;;;2073671;28;20073;-86
2022/03/13 01:36:06;;;;;;;8.48;5.57;;;10.50;67.50;;;;;;2065252;28;20081;-85
2022/03/13 01:37:29;;;;;;;8.02;5.68;;;10.40;67.40;;;;;;2065728;28;20207;-85
2022/03/13 01:38:33;;;;;;;7.20;5.00;;;10.40;67.40;;;;;;2067530;28;20187;-85
2022/03/13 01:39:34;;;;;;;8.13;5.60;;;10.40;67.50;;;;;;2063955;28;20041;-85
2022/03/13 01:40:35;;;;;;;7.38;5.10;;;10.40;67.50;;;;;;2071442;28;20137;-85
2022/03/13 01:41:36;;;;;;;8.68;5.05;;;10.40;67.50;;;;;;2065719;28;20035;-85
2022/03/13 01:42:42;;;;;;;7.97;5.47;;;10.40;68.20;;;;;;2057848;28;20035;-85
2022/03/13 01:43:43;;;;;;;8.40;5.97;;;10.40;67.50;;;;;;2065613;28;20019;-85
2022/03/13 01:44:43;;;;;;;8.80;5.70;;;10.40;67.50;;;;;;2061874;28;20089;-85
2022/03/13 01:45:44;;;;;;;9.40;5.20;;;10.40;67.50;;;;;;2065503;28;20129;-86
2022/03/13 01:46:45;;;;;;;8.70;5.47;;;10.40;67.50;;;;;;2065330;28;20396;-85
2022/03/13 01:47:46;;;;;;;9.07;5.90;;;10.40;67.60;;;;;;2065558;28;20061;-85
2022/03/13 01:49:06;;;;;;;8.55;5.82;;;10.40;67.60;;;;;;2064685;28;20054;-85
2022/03/13 01:50:09;;;;;;;8.85;5.97;;;10.40;67.60;;;;;;2070532;28;20101;-85
2022/03/13 01:51:10;;;;;;;9.23;5.43;;;10.30;67.60;;;;;;2074145;28;20586;-86
2022/03/13 01:52:11;;;;;;;8.77;5.93;;;10.30;67.60;;;;;;2073747;28;20115;-85
2022/03/13 01:53:12;;;;;;;8.27;5.53;;;10.40;67.60;;;;;;2065720;28;20027;-86
2022/03/13 01:54:14;;;;;;;8.45;5.65;;;10.30;67.60;;;;;;2073765;28;20040;-85
2022/03/13 01:55:16;;;;;;;8.52;5.90;;;10.30;67.70;;;;;;2072586;28;20030;-85
2022/03/13 01:56:17;;;;;;;8.07;5.65;;;10.30;67.70;;;;;;2072411;28;20026;-85
2022/03/13 01:57:20;;;;;;;8.43;5.60;;;10.30;67.70;;;;;;2072495;28;20062;-85
2022/03/13 01:58:20;;;;;;;8.40;5.78;;;10.30;67.70;;;;;;2070221;28;20079;-85
2022/03/13 01:59:21;;;;;;;8.95;6.00;;;10.30;67.70;;;;;;2072934;28;20502;-85
2022/03/13 02:00:22;;;;;;;8.95;5.80;;;10.30;68.40;;;;;;2065215;28;20137;-85
2022/03/13 02:01:25;;;;;;;8.88;6.00;;;10.30;67.70;;;;;;2073462;28;20030;-86
2022/03/13 02:02:32;;;;;;;9.20;6.28;;;10.30;67.80;;;;;;2073607;28;20072;-85
2022/03/13 02:03:33;;;;;;;9.15;6.00;;;10.30;67.80;;;;;;2066169;28;20050;-85
2022/03/13 02:04:34;;;;;;;8.57;5.60;;;10.30;67.80;;;;;;2057452;28;20401;-85
2022/03/13 02:05:36;;;;;;;9.43;6.22;;;10.30;67.80;;;;;;2055801;28;20077;-85
2022/03/13 02:06:36;;;;;;;9.77;6.50;;;10.20;67.80;;;;;;2073258;28;20424;-85
2022/03/13 02:07:37;;;;;;;10.10;6.55;;;10.20;67.80;;;;;;2073779;28;20057;-86
2022/03/13 02:08:38;;;;;;;9.30;6.38;;;10.20;67.80;;;;;;2073400;28;20042;-85
2022/03/13 02:09:39;;;;;;;9.88;6.20;;;10.20;67.80;;;;;;2073945;28;20029;-85
2022/03/13 02:10:39;;;;;;;10.05;6.63;;;10.20;67.90;;;;;;2071281;28;20093;-85
2022/03/13 02:11:40;;;;;;;9.95;6.72;;;10.20;68.00;;;;;;2073420;28;20030;-85
2022/03/13 02:12:41;;;;;;;10.15;6.72;;;10.20;68.00;;;;;;2074114;28;20396;-85
2022/03/13 02:13:43;;;;;;;9.93;6.57;;;10.10;68.00;;;;;;2073224;28;20041;-86
2022/03/13 02:14:44;;;;;;;10.20;6.45;;;10.10;68.00;;;;;;2074103;28;20022;-85
2022/03/13 02:15:46;;;;;;;9.52;6.53;;;10.10;68.10;;;;;;2056295;28;20027;-86
2022/03/13 02:16:48;;;;;;;10.73;7.00;;;10.10;68.10;;;;;;2049338;28;20031;-85
2022/03/13 02:17:49;;;;;;;10.57;7.05;;;10.00;68.10;;;;;;2072496;28;20028;-85
2022/03/13 02:18:52;;;;;;;10.40;6.93;;;10.00;68.20;;;;;;2072262;28;20117;-85
2022/03/13 02:19:54;;;;;;;9.57;6.78;;;10.00;68.20;;;;;;2073300;28;20025;-85
2022/03/13 02:20:55;;;;;;;10.18;7.07;;;10.00;68.20;;;;;;2072031;28;20034;-85
2022/03/13 02:21:58;;;;;;;9.55;6.28;;;10.00;68.30;;;;;;2065742;28;20061;-85
2022/03/13 02:23:00;;;;;;;10.80;7.30;;;9.90;68.30;;;;;;2073046;28;20026;-85
2022/03/13 02:24:02;;;;;;;10.82;7.57;;;9.90;68.30;;;;;;2065483;28;20034;-85
2022/03/13 02:25:03;;;;;;;11.40;7.53;;;9.90;68.40;;;;;;2073263;28;20029;-85
2022/03/13 02:26:06;;;;;;;11.00;7.43;;;9.80;68.40;;;;;;2064374;28;20437;-86
2022/03/13 02:27:09;;;;;;;11.13;6.97;;;9.80;68.40;;;;;;2057646;28;20486;-85
2022/03/13 02:28:10;;;;;;;10.25;7.07;;;9.80;68.50;;;;;;2072549;28;20426;-85
2022/03/13 02:29:14;;;;;;;10.43;7.07;;;9.80;68.50;;;;;;2073561;28;20038;-85
2022/03/13 02:30:14;;;;;;;10.05;7.35;;;9.80;68.60;;;;;;2073717;28;20018;-85
2022/03/13 02:31:22;;;;;;;11.27;7.53;;;9.80;68.60;;;;;;2072139;28;20022;-85
2022/03/13 02:32:23;;;;;;;11.02;7.47;;;9.70;68.60;;;;;;2074285;28;20038;-84
2022/03/13 02:33:24;;;;;;;10.70;7.72;;;9.70;68.60;;;;;;2076720;28;20120;-85
2022/03/13 02:34:26;;;;;;;11.40;7.75;;;9.70;68.70;;;;;;2075920;28;20037;-86
2022/03/13 02:35:30;;;;;;;11.40;7.82;;;9.70;68.70;;;;;;2075901;28;20030;-86
2022/03/13 02:36:31;;;;;;;12.07;7.90;;;9.70;68.70;;;;;;2074983;28;20432;-85
2022/03/13 02:37:34;;;;;;;11.38;7.55;;;9.70;68.80;;;;;;2064806;28;20077;-85
2022/03/13 02:38:35;;;;;;;10.98;7.75;;;9.60;68.80;;;;;;2063415;28;20456;-86
2022/03/13 02:39:37;;;;;;;11.45;7.88;;;9.70;68.80;;;;;;2048876;28;20118;-85
2022/03/13 02:40:38;;;;;;;12.02;8.50;;;9.60;68.80;;;;;;2057334;28;20046;-85
2022/03/13 02:41:40;;;;;;;12.75;8.68;;;9.60;68.80;;;;;;2072254;28;20516;-85
2022/03/13 02:42:41;;;;;;;11.52;8.25;;;9.50;68.80;;;;;;2073188;28;20087;-85
2022/03/13 02:43:42;;;;;;;10.95;7.75;;;9.60;68.90;;;;;;2073432;28;20460;-85
2022/03/13 02:44:42;;;;;;;12.48;8.45;;;9.60;69.00;;;;;;2073147;28;20030;-85
2022/03/13 02:45:44;;;;;;;13.45;8.68;;;9.50;69.00;;;;;;2064348;28;20030;-86
2022/03/13 02:46:57;;;;;;;11.20;7.72;;;9.50;69.10;;;;;;2057186;28;20041;-86
2022/03/13 02:48:00;;;;;;;11.93;7.60;;;9.50;69.10;;;;;;2069122;28;20109;-85
2022/03/13 02:49:01;;;;;;;11.60;7.97;;;9.50;69.10;;;;;;2073859;28;20017;-85
2022/03/13 02:50:02;;;;;;;11.25;7.38;;;9.40;69.00;;;;;;2072569;28;20539;-86
2022/03/13 02:51:02;;;;;;;11.23;7.38;;;9.50;69.20;;;;;;2064493;28;20027;-85
2022/03/13 02:52:05;;;;;;;10.30;7.57;;;9.40;69.20;;;;;;2056669;28;20031;-86
2022/03/13 02:53:06;;;;;;;11.50;8.00;;;9.40;69.20;;;;;;2065153;28;20488;-85
2022/03/13 02:54:08;;;;;;;10.48;7.63;;;9.50;69.30;;;;;;2065423;28;20018;-85
2022/03/13 02:55:09;;;;;;;12.90;8.32;;;9.40;69.20;;;;;;2065472;28;20034;-85
2022/03/13 02:56:10;;;;;;;12.60;8.35;;;9.40;69.90;;;;;;2070597;28;20388;-85
2022/03/13 02:57:10;;;;;;;12.30;8.55;;;9.40;69.30;;;;;;2072231;28;20105;-85
2022/03/13 02:58:11;;;;;;;12.10;7.60;;;9.40;69.30;;;;;;2072619;28;20037;-86
2022/03/13 02:59:13;;;;;;;12.00;8.18;;;9.40;69.40;;;;;;2064942;28;20448;-86
2022/03/13 03:00:16;;;;;;;11.85;8.27;;;9.40;69.40;;;;;;2065220;28;20038;-86
2022/03/13 03:01:19;;;;;;;10.73;7.65;;;9.40;69.50;;;;;;2065023;28;20176;-85
2022/03/13 03:02:20;;;;;;;11.35;7.90;;;9.40;69.50;;;;;;2065453;28;20022;-85
2022/03/13 03:03:22;;;;;;;11.45;8.10;;;9.30;69.50;;;;;;2064826;28;20033;-85
2022/03/13 03:04:24;;;;;;;11.50;7.63;;;9.30;69.50;;;;;;2064535;28;20056;-85
2022/03/13 03:05:24;;;;;;;12.38;8.18;;;9.30;69.60;;;;;;2062889;28;20042;-85
2022/03/13 03:06:27;;;;;;;10.85;8.00;;;9.30;69.70;;;;;;2063974;28;20034;-85
2022/03/13 03:07:28;;;;;;;10.95;7.72;;;9.30;69.70;;;;;;2068236;28;20069;-85
2022/03/13 03:08:28;;;;;;;11.48;7.80;;;9.30;69.70;;;;;;2056831;28;20401;-85
2022/03/13 03:09:31;;;;;;;10.88;7.85;;;9.30;69.80;;;;;;2055896;28;20109;-85
2022/03/13 03:10:33;;;;;;;10.95;7.50;;;9.30;69.90;;;;;;2072169;28;20508;-85
2022/03/13 03:11:34;;;;;;;10.57;7.60;;;9.30;69.90;;;;;;2066436;28;20069;-85
2022/03/13 03:12:34;;;;;;;11.77;8.23;;;9.30;69.90;;;;;;2064952;28;20444;-86
2022/03/13 03:13:35;;;;;;;11.25;7.90;;;9.20;70.00;;;;;;2064520;28;20018;-85
2022/03/13 03:14:36;;;;;;;12.45;8.25;;;9.20;70.00;;;;;;2064911;28;20066;-85
2022/03/13 03:15:40;;;;;;;12.00;7.82;;;9.20;70.00;;;;;;2064413;28;20018;-86
2022/03/13 03:16:41;;;;;;;11.00;7.88;;;9.20;70.00;;;;;;2069626;28;20377;-85
2022/03/13 03:17:41;;;;;;;12.18;7.97;;;9.20;70.00;;;;;;2068103;28;20037;-85
2022/03/13 03:18:42;;;;;;;12.02;7.80;;;9.20;70.00;;;;;;2072919;28;20132;-85
2022/03/13 03:19:43;;;;;;;10.75;7.75;;;9.20;70.10;;;;;;2073010;28;20025;-85
2022/03/13 03:20:43;;;;;;;11.05;7.78;;;9.20;70.00;;;;;;2056648;28;20645;-85
2022/03/13 03:21:44;;;;;;;11.68;8.10;;;9.20;70.10;;;;;;2049033;28;20592;-85
2022/03/13 03:22:44;;;;;;;12.20;7.82;;;9.20;70.10;;;;;;2063153;28;20053;-85
2022/03/13 03:23:45;;;;;;;12.93;8.55;;;9.30;70.10;;;;;;2065182;28;20073;-85
2022/03/13 03:24:48;;;;;;;11.88;8.32;;;9.20;70.10;;;;;;2073549;28;20033;-85
2022/03/13 03:25:48;;;;;;;12.05;8.43;;;9.20;70.00;;;;;;2073548;28;20076;-85
2022/03/13 03:26:49;;;;;;;11.68;8.30;;;9.20;70.00;;;;;;2071620;28;20072;-85
2022/03/13 03:27:51;;;;;;;11.25;8.10;;;9.20;70.10;;;;;;2063355;28;20448;-85
2022/03/13 03:28:52;;;;;;;12.25;8.27;;;9.30;70.10;;;;;;2064793;28;20040;-85
2022/03/13 03:29:55;;;;;;;12.20;7.72;;;9.20;70.60;;;;;;2064914;28;20049;-85
2022/03/13 03:30:59;;;;;;;11.60;8.10;;;9.30;70.10;;;;;;2064812;28;20026;-85
2022/03/13 03:32:02;;;;;;;11.65;7.97;;;9.30;70.00;;;;;;2064933;28;20412;-85
2022/03/13 03:33:04;;;;;;;11.00;7.53;;;9.20;70.00;;;;;;2064818;28;20035;-85
2022/03/13 03:34:08;;;;;;;12.82;8.50;;;9.20;70.00;;;;;;2064819;28;20392;-85
2022/03/13 03:35:09;;;;;;;11.50;7.65;;;9.20;70.00;;;;;;2065369;28;20516;-86
2022/03/13 03:36:15;;;;;;;11.20;8.23;;;9.20;70.00;;;;;;2065305;28;20030;-85
2022/03/13 03:37:16;;;;;;;11.23;7.78;;;9.20;70.00;;;;;;2070721;28;20452;-85
2022/03/13 03:38:17;;;;;;;11.43;8.07;;;9.20;70.00;;;;;;2073446;28;20034;-85
2022/03/13 03:39:19;;;;;;;10.25;7.68;;;9.20;70.00;;;;;;2063828;28;20475;-85
2022/03/13 03:40:25;;;;;;;11.45;8.07;;;9.20;70.00;;;;;;2064983;28;20449;-86
2022/03/13 03:41:26;;;;;;;10.98;7.80;;;9.20;70.00;;;;;;2073456;28;20022;-85
2022/03/13 03:42:27;;;;;;;12.10;7.82;;;9.20;70.00;;;;;;2073313;28;20485;-85
2022/03/13 03:43:27;;;;;;;12.00;7.97;;;9.20;70.00;;;;;;2072301;28;20046;-85
2022/03/13 03:44:28;;;;;;;11.75;7.65;;;9.10;70.00;;;;;;2064779;28;20034;-86
2022/03/13 03:45:29;;;;;;;12.65;8.45;;;9.20;70.00;;;;;;2072828;28;20044;-85
2022/03/13 03:46:29;;;;;;;11.38;8.10;;;9.20;70.00;;;;;;2071661;28;20125;-85
2022/03/13 03:47:30;;;;;;;12.15;7.80;;;9.20;70.00;;;;;;2061933;28;20146;-85
2022/03/13 03:48:31;;;;;;;11.27;8.02;;;9.10;70.00;;;;;;2064646;28;20053;-85
2022/03/13 03:49:34;;;;;;;11.50;8.15;;;9.10;70.00;;;;;;2060575;28;20095;-85
2022/03/13 03:50:34;;;;;;;11.73;8.10;;;9.10;70.00;;;;;;2064032;28;20393;-85
2022/03/13 03:51:36;;;;;;;11.68;7.82;;;9.10;70.00;;;;;;2072835;28;20436;-85
2022/03/13 03:52:36;;;;;;;10.65;7.75;;;9.10;70.00;;;;;;2064833;28;20027;-85
2022/03/13 03:53:37;;;;;;;12.23;8.57;;;9.10;70.00;;;;;;2072856;28;20120;-86
2022/03/13 03:54:37;;;;;;;11.13;7.82;;;9.20;70.00;;;;;;2063469;28;20038;-85
2022/03/13 03:55:38;;;;;;;12.48;8.32;;;9.10;70.00;;;;;;2064347;28;20519;-85
2022/03/13 03:56:39;;;;;;;11.35;8.32;;;9.20;70.00;;;;;;2065673;28;20026;-84
2022/03/13 03:57:40;;;;;;;11.35;8.10;;;9.20;70.70;;;;;;2062695;28;20469;-85
2022/03/13 03:58:41;;;;;;;12.75;7.80;;;9.20;70.00;;;;;;2060541;28;20027;-85
2022/03/13 03:59:42;;;;;;;12.70;8.60;;;9.20;70.10;;;;;;2072828;28;20463;-86
2022/03/13 04:00:42;;;;;;;12.63;8.40;;;9.20;70.10;;;;;;2064296;28;20053;-85
2022/03/13 04:01:43;;;;;;;13.15;8.57;;;9.10;70.00;;;;;;2064733;28;20037;-85
2022/03/13 04:02:44;;;;;;;12.10;7.88;;;9.10;70.00;;;;;;2064708;28;20028;-85
2022/03/13 04:03:45;;;;;;;11.65;8.25;;;9.10;70.00;;;;;;2064456;28;20022;-85
2022/03/13 04:04:46;;;;;;;11.80;8.20;;;9.10;70.00;;;;;;2064583;28;20034;-85
2022/03/13 04:05:47;;;;;;;13.32;8.60;;;9.10;70.00;;;;;;2072780;28;20527;-85
2022/03/13 04:06:47;;;;;;;11.77;8.25;;;9.10;70.00;;;;;;2071997;28;20048;-86
2022/03/13 04:07:48;;;;;;;11.82;8.38;;;9.10;70.00;;;;;;2071168;28;20037;-85
2022/03/13 04:08:49;;;;;;;13.00;8.07;;;9.10;70.10;;;;;;2064221;28;20034;-85
2022/03/13 04:09:49;;;;;;;11.95;8.20;;;9.10;70.00;;;;;;2064410;28;20027;-85
2022/03/13 04:10:50;;;;;;;11.40;8.07;;;9.10;70.00;;;;;;2072786;28;20106;-85
2022/03/13 04:11:52;;;;;;;12.10;8.30;;;9.10;70.00;;;;;;2063587;28;20026;-85
2022/03/13 04:12:53;;;;;;;11.73;8.27;;;9.10;70.00;;;;;;2056663;28;20074;-85
2022/03/13 04:13:54;;;;;;;12.60;8.18;;;9.10;70.00;;;;;;2065401;28;20037;-85
2022/03/13 04:14:54;;;;;;;11.60;8.30;;;9.20;70.00;;;;;;2073291;28;20125;-85
2022/03/13 04:15:56;;;;;;;11.15;7.72;;;9.10;69.90;;;;;;2072595;28;20037;-85
2022/03/13 04:16:56;;;;;;;9.85;7.13;;;9.20;70.00;;;;;;2062851;28;20754;-84
2022/03/13 04:17:57;;;;;;;11.90;7.85;;;9.10;69.90;;;;;;2064639;28;20035;-85
2022/03/13 04:18:58;;;;;;;10.45;7.72;;;9.20;69.90;;;;;;2064627;28;20085;-86
2022/03/13 04:19:59;;;;;;;11.10;7.85;;;9.10;69.90;;;;;;2056511;28;20536;-85
2022/03/13 04:21:00;;;;;;;10.27;6.90;;;9.10;69.90;;;;;;2059224;28;20054;-85
2022/03/13 04:22:02;;;;;;;11.15;7.35;;;9.20;70.00;;;;;;2056859;28;20054;-85
2022/03/13 04:23:02;;;;;;;11.73;7.88;;;9.20;70.00;;;;;;2056843;28;20045;-85
2022/03/13 04:24:03;;;;;;;11.23;7.60;;;9.20;70.00;;;;;;2072751;28;20030;-85
2022/03/13 04:25:05;;;;;;;11.57;7.45;;;9.20;69.90;;;;;;2072341;28;20044;-85
2022/03/13 04:26:06;;;;;;;11.10;7.68;;;9.20;69.90;;;;;;2072190;28;20084;-85
2022/03/13 04:27:07;;;;;;;10.85;7.28;;;9.20;69.90;;;;;;2069264;28;20030;-85
2022/03/13 04:28:09;;;;;;;9.95;7.18;;;9.20;69.90;;;;;;2074284;28;20066;-85
2022/03/13 04:29:10;;;;;;;10.05;7.57;;;9.20;69.90;;;;;;2074902;28;20034;-86
2022/03/13 04:30:12;;;;;;;10.68;7.22;;;9.20;69.90;;;;;;2074210;28;20152;-85
2022/03/13 04:31:13;;;;;;;10.98;7.03;;;9.20;69.90;;;;;;2065889;28;20026;-85
2022/03/13 04:32:14;;;;;;;11.15;7.38;;;9.30;69.90;;;;;;2066483;28;20121;-85
2022/03/13 04:33:16;;;;;;;12.18;7.20;;;9.30;69.90;;;;;;2057201;28;20069;-85
2022/03/13 04:34:17;;;;;;;10.48;6.90;;;9.30;69.90;;;;;;2058781;28;20054;-85
2022/03/13 04:35:18;;;;;;;10.60;7.13;;;9.30;69.80;;;;;;2058398;28;20041;-86
2022/03/13 04:36:21;;;;;;;11.23;7.03;;;9.30;69.80;;;;;;2065472;28;20126;-85
2022/03/13 04:37:22;;;;;;;11.90;7.63;;;9.30;69.80;;;;;;2065703;28;20041;-86
2022/03/13 04:38:24;;;;;;;12.02;8.00;;;9.30;69.70;;;;;;2058210;28;20031;-85
2022/03/13 04:39:25;;;;;;;10.85;7.72;;;9.20;70.20;;;;;;2058582;28;20513;-85
2022/03/13 04:40:25;;;;;;;11.95;7.65;;;9.20;69.60;;;;;;2065878;28;20043;-85
2022/03/13 04:41:26;;;;;;;10.80;7.20;;;9.20;69.60;;;;;;2057950;28;20030;-86
2022/03/13 04:42:27;;;;;;;11.48;7.82;;;9.20;69.60;;;;;;2058102;28;20386;-85
2022/03/13 04:43:27;;;;;;;11.48;7.97;;;9.20;69.60;;;;;;2066091;28;20030;-85
2022/03/13 04:44:28;;;;;;;11.05;7.63;;;9.20;69.60;;;;;;2073078;28;20044;-85
2022/03/13 04:45:29;;;;;;;10.25;7.30;;;9.20;69.50;;;;;;2074752;28;20438;-86
2022/03/13 04:46:30;;;;;;;10.73;7.35;;;9.20;69.50;;;;;;2072907;28;20037;-85
2022/03/13 04:47:31;;;;;;;12.25;8.40;;;9.20;69.50;;;;;;2058819;28;20520;-85
2022/03/13 04:48:34;;;;;;;11.43;7.63;;;9.20;69.50;;;;;;2058248;28;20027;-85
2022/03/13 04:49:34;;;;;;;10.55;7.40;;;9.20;69.40;;;;;;2066626;28;20056;-85
2022/03/13 04:50:35;;;;;;;11.90;8.38;;;9.20;69.30;;;;;;2073842;28;20125;-85
2022/03/13 04:51:37;;;;;;;10.95;7.50;;;9.20;69.30;;;;;;2073500;28;20053;-85
2022/03/13 04:52:38;;;;;;;12.27;8.38;;;9.20;69.20;;;;;;2065765;28;20030;-86
2022/03/13 04:53:39;;;;;;;12.80;8.68;;;9.20;69.20;;;;;;2058343;28;20510;-85
2022/03/13 04:54:40;;;;;;;12.48;8.85;;;9.20;69.20;;;;;;2065614;28;20447;-85
2022/03/13 04:55:42;;;;;;;12.95;9.32;;;9.10;69.10;;;;;;2057506;28;20035;-85
2022/03/13 04:56:44;;;;;;;12.43;8.32;;;9.10;69.10;;;;;;2061915;28;20023;-85
2022/03/13 04:57:45;;;;;;;12.25;8.50;;;9.10;69.10;;;;;;2070087;28;20033;-85
2022/03/13 04:58:45;;;;;;;12.73;8.38;;;9.10;69.00;;;;;;2066163;28;20117;-85
2022/03/13 04:59:46;;;;;;;11.85;8.25;;;9.10;69.10;;;;;;2074093;28;20085;-86
2022/03/13 05:00:47;;;;;;;11.45;7.93;;;9.00;69.00;;;;;;2065652;28;20366;-85
2022/03/13 05:01:48;;;;;;;10.35;7.57;;;9.10;69.00;;;;;;2065977;28;20026;-85
2022/03/13 05:02:48;;;;;;;12.27;8.27;;;9.00;69.00;;;;;;2066074;28;20062;-85
2022/03/13 05:03:49;;;;;;;11.30;7.55;;;9.00;68.90;;;;;;2065982;28;20121;-85
2022/03/13 05:04:50;;;;;;;12.32;8.23;;;9.00;68.90;;;;;;2061522;28;20027;-85
2022/03/13 05:05:50;;;;;;;11.55;7.90;;;9.00;68.80;;;;;;2041411;29;20498;-85
2022/03/13 05:06:51;;;;;;;12.88;7.70;;;9.00;68.80;;;;;;2057466;28;20063;-85
2022/03/13 05:07:52;;;;;;;11.10;7.10;;;9.00;68.80;;;;;;2073714;28;20397;-85
2022/03/13 05:08:52;;;;;;;9.75;7.00;;;9.00;69.30;;;;;;2057752;28;20026;-86
2022/03/13 05:09:53;;;;;;;11.32;7.68;;;9.00;69.30;;;;;;2057725;28;20030;-85
2022/03/13 05:10:53;;;;;;;10.30;7.18;;;9.00;68.60;;;;;;2065867;28;20077;-86
2022/03/13 05:11:54;;;;;;;11.95;7.90;;;9.00;68.60;;;;;;2065973;28;20060;-85
2022/03/13 05:12:55;;;;;;;11.15;7.55;;;9.00;68.50;;;;;;2074243;28;20030;-85
2022/03/13 05:13:56;;;;;;;12.57;8.20;;;9.00;68.40;;;;;;2074695;28;20034;-86
2022/03/13 05:14:56;;;;;;;11.40;8.00;;;9.00;68.30;;;;;;2073956;28;20029;-85
2022/03/13 05:15:57;;;;;;;11.30;7.85;;;9.00;68.20;;;;;;2072720;28;20092;-86
2022/03/13 05:16:58;;;;;;;11.50;7.72;;;9.00;68.20;;;;;;2063849;28;20054;-85
2022/03/13 05:18:00;;;;;;;10.50;7.63;;;9.00;68.20;;;;;;2059479;28;20559;-85
2022/03/13 05:19:00;;;;;;;10.55;7.63;;;8.90;68.10;;;;;;2066634;28;20026;-85
2022/03/13 05:20:01;;;;;;;10.15;7.07;;;9.00;68.10;;;;;;2056761;28;20030;-85